createdAt,value
2022-09-06T00:01:52.101Z,2.30
2022-09-06T00:04:18.680Z,1.60
2022-09-06T00:06:45.210Z,1.83
2022-09-06T00:09:11.961Z,1.58
2022-09-06T00:11:38.651Z,1.55
2022-09-06T00:14:05.221Z,1.98
2022-09-06T00:16:31.870Z,2.88
2022-09-06T00:18:58.496Z,2.78
2022-09-06T00:21:27.725Z,2.67
2022-09-06T00:23:54.532Z,1.35
2022-09-06T00:26:22.698Z,1.40
2022-09-06T00:28:49.591Z,3.38
2022-09-06T00:31:26.711Z,2.95
2022-09-06T00:33:54.067Z,2.28
2022-09-06T00:36:21.711Z,1.55
2022-09-06T00:38:48.353Z,1.77
2022-09-06T00:41:16.578Z,2.20
2022-09-06T00:43:43.949Z,3.05
2022-09-06T00:46:14.756Z,1.42
2022-09-06T00:48:42.844Z,2.47
2022-09-06T00:51:12.230Z,1.83
2022-09-06T00:53:39.658Z,2.53
2022-09-06T00:56:06.581Z,1.30
2022-09-06T00:58:33.532Z,1.95
2022-09-06T01:01:00.151Z,2.33
2022-09-06T01:03:27.010Z,1.30
2022-09-06T01:05:54.613Z,2.20
2022-09-06T01:08:55.894Z,2.50
2022-09-06T01:11:28.550Z,1.50
2022-09-06T01:14:39.325Z,1.63
2022-09-06T01:17:24.645Z,1.67
2022-09-06T01:20:09.493Z,4.72
2022-09-06T01:22:52.406Z,1.85
2022-09-06T01:25:37.858Z,2.72
2022-09-06T01:28:28.880Z,1.85
2022-09-06T01:31:18.564Z,3.90
2022-09-06T01:34:08.242Z,2.95
2022-09-06T01:37:06.603Z,11.02
2022-09-06T01:39:35.572Z,2.17
2022-09-06T01:42:24.632Z,2.63
2022-09-06T01:45:04.469Z,4.22
2022-09-06T01:47:54.561Z,2.15
2022-09-06T01:50:49.087Z,2.00
2022-09-06T01:53:53.510Z,2.63
2022-09-06T01:56:44.763Z,3.35
2022-09-06T01:59:42.419Z,2.97
2022-09-06T02:02:22.320Z,5.10
2022-09-06T02:05:04.854Z,2.65
2022-09-06T02:07:33.177Z,5.10
2022-09-06T02:10:26.880Z,4.47
2022-09-06T02:12:57.416Z,3.50
2022-09-06T02:15:31.372Z,1.55
2022-09-06T02:18:05.543Z,3.25
2022-09-06T02:20:35.465Z,4.63
2022-09-06T02:23:07.023Z,2.80
2022-09-06T02:25:47.329Z,5.32
2022-09-06T02:28:14.177Z,3.53
2022-09-06T02:30:45.078Z,2.20
2022-09-06T02:33:17.413Z,2.60
2022-09-06T02:35:46.533Z,2.10
2022-09-06T02:38:13.664Z,3.40
2022-09-06T02:40:40.472Z,4.38
2022-09-06T02:43:07.160Z,2.30
2022-09-06T02:45:34.125Z,3.13
2022-09-06T02:48:00.668Z,4.53
2022-09-06T02:50:27.204Z,3.25
2022-09-06T02:53:09.531Z,1.95
2022-09-06T02:55:37.313Z,5.47
2022-09-06T02:58:04.900Z,4.60
2022-09-06T03:00:31.649Z,3.55
2022-09-06T03:02:58.247Z,3.20
2022-09-06T03:05:26.294Z,1.42
2022-09-06T03:07:54.389Z,4.20
2022-09-06T03:10:21.658Z,1.58
2022-09-06T03:12:48.888Z,2.15
2022-09-06T03:15:16.703Z,2.85
2022-09-06T03:17:44.111Z,2.13
2022-09-06T03:20:11.730Z,1.73
2022-09-06T03:22:42.086Z,4.03
2022-09-06T03:25:10.176Z,2.15
2022-09-06T03:27:37.375Z,1.73
2022-09-06T03:30:06.147Z,5.45
2022-09-06T03:32:32.767Z,2.30
2022-09-06T03:34:59.755Z,1.70
2022-09-06T03:37:26.663Z,2.03
2022-09-06T03:39:53.311Z,3.13
2022-09-06T03:42:19.854Z,1.98
2022-09-06T03:44:46.408Z,3.33
2022-09-06T03:47:15.525Z,1.40
2022-09-06T03:49:45.360Z,2.17
2022-09-06T03:52:11.881Z,6.53
2022-09-06T03:54:38.395Z,6.88
2022-09-06T03:57:05.011Z,1.75
2022-09-06T03:59:31.595Z,3.22
2022-09-06T04:01:58.212Z,3.70
2022-09-06T04:04:24.880Z,2.88
2022-09-06T04:06:51.417Z,2.80
2022-09-06T04:09:18.003Z,4.07
2022-09-06T04:11:45.213Z,4.97
2022-09-06T04:14:11.890Z,5.93
2022-09-06T04:16:38.571Z,1.83
2022-09-06T04:19:05.175Z,2.28
2022-09-06T04:21:31.946Z,2.30
2022-09-06T04:23:58.673Z,5.03
2022-09-06T04:26:25.177Z,5.05
2022-09-06T04:28:51.707Z,1.83
2022-09-06T04:31:18.362Z,2.83
2022-09-06T04:33:44.961Z,2.33
2022-09-06T04:36:12.741Z,3.92
2022-09-06T04:38:42.270Z,2.22
2022-09-06T04:41:10.996Z,6.57
2022-09-06T04:43:37.608Z,2.22
2022-09-06T04:46:09.488Z,5.60
2022-09-06T04:48:36.133Z,5.88
2022-09-06T04:51:02.782Z,3.70
2022-09-06T04:53:29.327Z,2.35
2022-09-06T04:55:57.571Z,6.57
2022-09-06T04:58:24.299Z,2.95
2022-09-06T05:00:51.328Z,4.20
2022-09-06T05:03:18.184Z,6.20
2022-09-06T05:05:44.706Z,2.35
2022-09-06T05:08:11.623Z,8.60
2022-09-06T05:10:38.548Z,6.47
2022-09-06T05:13:05.081Z,7.88
2022-09-06T05:15:31.829Z,5.93
2022-09-06T05:18:03.977Z,5.57
2022-09-06T05:20:31.294Z,10.85
2022-09-06T05:22:57.839Z,6.13
2022-09-06T05:25:24.427Z,2.65
2022-09-06T05:27:51.004Z,1.92
2022-09-06T05:30:18.412Z,2.92
2022-09-06T05:32:45.042Z,7.40
2022-09-06T05:35:11.577Z,6.28
2022-09-06T05:37:38.127Z,5.93
2022-09-06T05:40:04.920Z,3.00
2022-09-06T05:42:31.489Z,9.10
2022-09-06T05:44:58.384Z,12.25
2022-09-06T05:47:24.905Z,4.78
2022-09-06T05:49:54.384Z,4.47
2022-09-06T05:52:20.903Z,3.30
2022-09-06T05:54:47.513Z,7.00
2022-09-06T05:57:14.033Z,2.85
2022-09-06T05:59:40.541Z,4.22
2022-09-06T06:02:07.792Z,2.15
2022-09-06T06:04:34.612Z,3.25
2022-09-06T06:07:01.770Z,10.57
2022-09-06T06:09:28.527Z,2.88
2022-09-06T06:11:55.081Z,5.35
2022-09-06T06:14:21.757Z,3.38
2022-09-06T06:16:48.307Z,2.30
2022-09-06T06:19:15.436Z,5.43
2022-09-06T06:21:43.712Z,4.38
2022-09-06T06:24:10.376Z,3.40
2022-09-06T06:26:37.557Z,4.20
2022-09-06T06:29:08.142Z,14.43
2022-09-06T06:31:36.157Z,3.80
2022-09-06T06:34:04.140Z,5.50
2022-09-06T06:36:33.868Z,12.65
2022-09-06T06:39:02.265Z,14.38
2022-09-06T06:41:31.889Z,17.50
2022-09-06T06:44:00.921Z,6.03
2022-09-06T06:46:35.406Z,5.32
2022-09-06T06:49:02.197Z,17.67
2022-09-06T06:51:31.165Z,14.27
2022-09-06T06:53:57.896Z,10.07
2022-09-06T06:56:27.531Z,4.10
2022-09-06T06:58:57.723Z,7.80
2022-09-06T07:01:26.533Z,3.75
2022-09-06T07:03:53.379Z,4.55
2022-09-06T07:06:21.187Z,14.27
2022-09-06T07:08:48.198Z,7.30
2022-09-06T07:11:18.632Z,13.13
2022-09-06T07:13:46.987Z,5.32
2022-09-06T07:16:16.486Z,18.25
2022-09-06T07:18:43.764Z,5.90
2022-09-06T07:26:31.198Z,8.15
2022-09-06T07:29:00.037Z,8.38
2022-09-06T07:34:15.040Z,6.40
2022-09-06T07:36:41.555Z,10.10
2022-09-06T07:39:08.059Z,8.48
2022-09-06T07:41:34.621Z,11.88
2022-09-06T07:44:01.126Z,7.00
2022-09-06T07:46:27.970Z,9.65
2022-09-06T07:48:54.558Z,15.55
2022-09-06T07:51:22.904Z,9.73
2022-09-06T07:53:58.036Z,10.98
2022-09-06T07:56:33.979Z,15.52
2022-09-06T07:59:00.601Z,16.95
2022-09-06T08:01:29.979Z,20.00
2022-09-06T08:03:58.821Z,14.27
2022-09-06T08:06:26.810Z,11.57
2022-09-06T08:08:57.272Z,10.65
2022-09-06T08:11:28.208Z,12.88
2022-09-06T08:13:56.136Z,19.90
2022-09-06T08:16:26.193Z,11.70
2022-09-06T08:18:54.822Z,19.60
2022-09-06T08:21:25.432Z,14.20
2022-09-06T08:23:56.121Z,7.40
2022-09-06T08:26:23.915Z,13.18
2022-09-06T08:29:00.174Z,12.52
2022-09-06T08:31:28.768Z,8.38
2022-09-06T08:33:56.907Z,11.13
2022-09-06T08:36:27.221Z,13.73
2022-09-06T08:38:53.803Z,10.55
2022-09-06T08:41:41.761Z,8.70
2022-09-06T08:47:02.355Z,12.85
2022-09-06T08:49:35.522Z,6.25
2022-09-06T08:52:14.234Z,9.60
2022-09-06T08:55:01.772Z,8.48
2022-09-06T08:57:46.067Z,8.45
2022-09-06T09:00:15.057Z,9.38
2022-09-06T09:02:59.755Z,11.48
2022-09-06T09:05:33.001Z,11.05
2022-09-06T09:08:02.554Z,12.85
2022-09-06T09:10:42.934Z,10.57
2022-09-06T09:13:20.388Z,11.98
2022-09-06T09:15:47.040Z,7.80
2022-09-06T09:18:20.676Z,10.48
2022-09-06T09:20:47.289Z,8.13
2022-09-06T09:23:13.821Z,12.70
2022-09-06T09:25:40.613Z,9.38
2022-09-06T09:28:16.487Z,8.35
2022-09-06T09:30:51.912Z,8.57
2022-09-06T09:33:28.991Z,11.10
2022-09-06T09:35:58.277Z,5.43
2022-09-06T09:38:29.998Z,6.57
2022-09-06T09:41:00.019Z,9.27
2022-09-06T09:43:29.860Z,10.57
2022-09-06T09:46:11.764Z,8.40
2022-09-06T09:48:39.848Z,7.75
2022-09-06T09:51:26.119Z,6.15
2022-09-06T09:53:58.943Z,6.88
2022-09-06T09:56:38.695Z,7.22
2022-09-06T09:59:19.315Z,7.85
2022-09-06T10:01:46.112Z,6.03
2022-09-06T10:07:15.011Z,6.20
2022-09-06T10:09:46.301Z,5.78
2022-09-06T10:12:38.879Z,7.47
2022-09-06T10:15:08.243Z,5.25
2022-09-06T10:17:36.376Z,5.53
2022-09-06T10:20:09.381Z,4.68
2022-09-06T10:23:04.760Z,6.35
2022-09-06T10:25:51.489Z,5.07
2022-09-06T10:28:46.111Z,7.85
2022-09-06T10:31:43.463Z,7.80
2022-09-06T10:34:29.321Z,4.68
2022-09-06T10:37:18.632Z,7.05
2022-09-06T10:40:08.278Z,4.03
2022-09-06T10:42:55.334Z,7.00
2022-09-06T10:45:22.231Z,3.25
2022-09-06T10:48:04.767Z,4.55
2022-09-06T10:50:48.214Z,4.43
2022-09-06T10:53:42.326Z,5.00
2022-09-06T10:56:13.093Z,6.65
2022-09-06T11:01:42.939Z,3.55
2022-09-06T11:04:14.139Z,5.22
2022-09-06T11:06:47.996Z,7.47
2022-09-06T11:09:32.262Z,4.55
2022-09-06T11:12:06.408Z,4.18
2022-09-06T11:14:34.363Z,6.15
2022-09-06T11:17:07.665Z,6.20
2022-09-06T11:20:12.990Z,3.03
2022-09-06T11:22:54.965Z,6.00
2022-09-06T11:25:33.993Z,5.55
2022-09-06T11:28:03.924Z,6.70
2022-09-06T11:30:31.131Z,4.88
2022-09-06T11:33:25.048Z,3.38
2022-09-06T11:35:52.508Z,6.57
2022-09-06T11:38:24.789Z,7.15
2022-09-06T11:41:15.991Z,5.95
2022-09-06T11:43:53.188Z,7.22
2022-09-06T11:46:35.125Z,5.97
2022-09-06T11:49:29.772Z,6.28
2022-09-06T11:51:56.424Z,7.05
2022-09-06T11:54:34.615Z,6.95
2022-09-06T11:57:22.570Z,6.13
2022-09-06T12:00:15.328Z,6.85
2022-09-06T12:02:42.985Z,8.02
2022-09-06T12:05:13.682Z,6.38
2022-09-06T12:08:14.544Z,8.23
2022-09-06T12:10:42.188Z,8.95
2022-09-06T12:13:45.710Z,5.50
2022-09-06T12:16:13.594Z,9.13
2022-09-06T12:18:54.205Z,8.90
2022-09-06T12:21:43.997Z,6.38
2022-09-06T12:24:45.177Z,11.57
2022-09-06T12:27:16.061Z,10.70
2022-09-06T12:29:58.838Z,5.00
2022-09-06T12:32:32.625Z,6.05
2022-09-06T12:38:06.986Z,6.90
2022-09-06T12:40:49.346Z,8.70
2022-09-06T12:43:17.594Z,5.90
2022-09-06T12:45:50.729Z,2.97
2022-09-06T12:48:29.425Z,9.05
2022-09-06T12:51:02.549Z,10.23
2022-09-06T12:53:31.592Z,5.72
2022-09-06T12:56:05.335Z,8.93
2022-09-06T12:58:31.986Z,5.75
2022-09-06T13:01:08.764Z,11.30
2022-09-06T13:03:45.737Z,6.72
2022-09-06T13:06:24.651Z,7.05
2022-09-06T13:08:55.651Z,6.85
2022-09-06T13:11:34.304Z,7.53
2022-09-06T13:14:13.390Z,5.60
2022-09-06T13:16:47.475Z,5.50
2022-09-06T13:19:28.274Z,9.27
2022-09-06T13:21:55.303Z,7.68
2022-09-06T13:24:46.822Z,4.43
2022-09-06T13:27:23.738Z,9.70
2022-09-06T13:29:56.782Z,6.68
2022-09-06T13:32:23.732Z,7.55
2022-09-06T13:34:57.067Z,9.63
2022-09-06T13:37:29.749Z,4.38
2022-09-06T13:39:57.739Z,9.20
2022-09-06T13:42:41.912Z,7.72
2022-09-06T13:45:38.289Z,9.05
2022-09-06T13:48:26.204Z,5.72
2022-09-06T13:50:51.337Z,6.97
2022-09-06T13:53:21.062Z,4.68
2022-09-06T13:55:47.615Z,4.70
2022-09-06T13:58:14.089Z,3.55
2022-09-06T14:00:41.311Z,3.45
2022-09-06T14:03:11.772Z,4.93
2022-09-06T14:05:39.088Z,4.93
2022-09-06T14:08:05.752Z,1.90
2022-09-06T14:10:32.303Z,3.90
2022-09-06T14:12:58.821Z,5.32
2022-09-06T14:15:25.938Z,4.60
2022-09-06T14:17:52.527Z,3.47
2022-09-06T14:20:19.104Z,3.75
2022-09-06T14:22:47.120Z,3.75
2022-09-06T14:25:13.758Z,7.18
2022-09-06T14:27:40.713Z,8.00
2022-09-06T14:30:07.686Z,3.30
2022-09-06T14:32:34.183Z,2.78
2022-09-06T14:35:02.161Z,4.20
2022-09-06T14:37:28.715Z,4.25
2022-09-06T14:39:55.301Z,4.03
2022-09-06T14:42:24.654Z,4.93
2022-09-06T14:44:51.847Z,4.60
2022-09-06T14:47:18.379Z,3.78
2022-09-06T14:49:45.065Z,4.13
2022-09-06T14:52:11.667Z,4.32
2022-09-06T14:54:38.231Z,5.25
2022-09-06T14:57:07.588Z,4.40
2022-09-06T14:59:34.382Z,6.53
2022-09-06T15:02:01.015Z,2.15
2022-09-06T15:04:27.685Z,5.35
2022-09-06T15:06:54.373Z,2.15
2022-09-06T15:09:20.993Z,6.55
2022-09-06T15:11:51.746Z,4.00
2022-09-06T15:14:26.481Z,5.20
2022-09-06T15:16:56.688Z,4.43
2022-09-06T15:19:24.834Z,4.95
2022-09-06T15:21:51.561Z,2.10
2022-09-06T15:24:18.601Z,5.68
2022-09-06T15:26:45.530Z,4.35
2022-09-06T15:29:13.089Z,3.20
2022-09-06T15:31:40.870Z,5.30
2022-09-06T15:34:09.043Z,8.07
2022-09-06T15:36:36.625Z,3.70
2022-09-06T15:39:04.556Z,3.72
2022-09-06T15:41:32.993Z,5.80
2022-09-06T15:44:01.851Z,3.95
2022-09-06T15:46:34.626Z,5.47
2022-09-06T15:49:03.960Z,3.58
2022-09-06T15:51:31.016Z,4.43
2022-09-06T15:53:58.955Z,3.35
2022-09-06T15:56:25.764Z,4.32
2022-09-06T15:58:52.434Z,2.03
2022-09-06T16:01:24.019Z,5.10
2022-09-06T16:04:05.317Z,3.35
2022-09-06T16:06:44.021Z,3.75
2022-09-06T16:09:16.676Z,2.95
2022-09-06T16:11:47.550Z,4.53
2022-09-06T16:14:18.998Z,2.50
2022-09-06T16:16:49.622Z,4.05
2022-09-06T16:19:18.360Z,3.83
2022-09-06T16:21:48.200Z,3.55
2022-09-06T16:24:21.047Z,3.13
2022-09-06T16:26:51.836Z,2.92
2022-09-06T16:29:22.179Z,1.88
2022-09-06T16:31:48.772Z,1.83
2022-09-06T16:34:15.515Z,4.75
2022-09-06T16:36:42.261Z,3.83
2022-09-06T16:39:09.453Z,2.15
2022-09-06T16:41:42.906Z,1.77
2022-09-06T16:44:16.368Z,4.95
2022-09-06T16:46:48.110Z,2.13
2022-09-06T16:49:17.033Z,1.90
2022-09-06T16:51:44.134Z,2.58
2022-09-06T16:54:10.633Z,3.30
2022-09-06T16:56:40.388Z,2.58
2022-09-06T16:59:11.761Z,2.95
2022-09-06T17:01:43.776Z,2.85
2022-09-06T17:04:17.862Z,2.83
2022-09-06T17:06:45.632Z,1.52
2022-09-06T17:09:19.483Z,3.45
2022-09-06T17:11:50.443Z,3.33
2022-09-06T17:14:20.592Z,1.75
2022-09-06T17:17:08.585Z,2.03
2022-09-06T17:19:41.451Z,3.25
2022-09-06T17:22:12.992Z,2.67
2022-09-06T17:24:40.853Z,2.50
2022-09-06T17:27:09.670Z,7.15
2022-09-06T17:29:45.491Z,3.40
2022-09-06T17:32:17.005Z,2.47
2022-09-06T17:34:52.607Z,5.88
2022-09-06T17:37:23.001Z,2.55
2022-09-06T17:39:49.774Z,4.25
2022-09-06T17:42:17.105Z,4.00
2022-09-06T17:44:46.722Z,4.38
2022-09-06T17:47:15.782Z,4.40
2022-09-06T17:49:42.906Z,5.88
2022-09-06T17:52:10.247Z,2.72
2022-09-06T17:54:37.167Z,2.67
2022-09-06T17:57:03.922Z,3.35
2022-09-06T17:59:35.096Z,4.05
2022-09-06T18:02:05.117Z,3.28
2022-09-06T18:04:31.836Z,3.45
2022-09-06T18:06:59.170Z,2.42
2022-09-06T18:09:28.927Z,3.97
2022-09-06T18:11:56.288Z,3.20
2022-09-06T18:14:24.572Z,3.28
2022-09-06T18:16:53.406Z,4.55
2022-09-06T18:19:23.281Z,3.60
2022-09-06T18:21:57.279Z,8.77
2022-09-06T18:24:26.919Z,4.72
2022-09-06T18:27:01.799Z,4.63
2022-09-06T18:29:33.204Z,3.55
2022-09-06T18:32:00.643Z,4.32
2022-09-06T18:34:30.036Z,2.78
2022-09-06T18:37:01.440Z,3.50
2022-09-06T18:39:35.833Z,3.08
2022-09-06T18:42:09.544Z,4.20
2022-09-06T18:44:39.526Z,4.28
2022-09-06T18:47:08.479Z,3.28
2022-09-06T18:49:40.522Z,4.25
2022-09-06T18:52:08.556Z,5.05
2022-09-06T18:54:37.298Z,3.47
2022-09-06T18:57:04.353Z,2.78
2022-09-06T18:59:34.690Z,4.90
2022-09-06T19:02:01.361Z,2.78
2022-09-06T19:04:35.689Z,4.70
2022-09-06T19:07:04.910Z,4.88
2022-09-06T19:09:35.041Z,8.50
2022-09-06T19:12:03.507Z,2.47
2022-09-06T19:14:30.510Z,6.03
2022-09-06T19:17:00.142Z,4.90
2022-09-06T19:19:26.817Z,3.33
2022-09-06T19:21:53.652Z,3.80
2022-09-06T19:24:25.429Z,6.50
2022-09-06T19:26:53.375Z,4.50
2022-09-06T19:29:23.025Z,3.53
2022-09-06T19:31:52.518Z,4.32
2022-09-06T19:34:19.959Z,3.55
2022-09-06T19:36:46.861Z,5.80
2022-09-06T19:39:15.787Z,6.85
2022-09-06T19:41:47.504Z,7.78
2022-09-06T19:44:22.686Z,3.22
2022-09-06T19:46:50.038Z,2.40
2022-09-06T19:49:21.576Z,9.05
2022-09-06T19:51:49.717Z,7.38
2022-09-06T19:54:20.564Z,5.75
2022-09-06T19:56:51.456Z,10.35
2022-09-06T19:59:20.098Z,6.60
2022-09-06T20:01:47.964Z,6.88
2022-09-06T20:04:15.867Z,3.67
2022-09-06T20:06:42.604Z,7.10
2022-09-06T20:09:14.948Z,4.03
2022-09-06T20:11:44.802Z,5.68
2022-09-06T20:14:12.205Z,5.30
2022-09-06T20:16:42.137Z,5.50
2022-09-06T20:19:09.616Z,4.75
2022-09-06T20:21:36.352Z,6.50
2022-09-06T20:24:03.059Z,7.63
2022-09-06T20:26:30.546Z,6.85
2022-09-06T20:29:04.029Z,6.07
2022-09-06T20:31:32.122Z,5.15
2022-09-06T20:34:00.752Z,8.45
2022-09-06T20:36:27.622Z,9.15
2022-09-06T20:38:54.177Z,5.18
2022-09-06T20:41:23.595Z,3.85
2022-09-06T20:43:52.255Z,8.02
2022-09-06T20:46:20.711Z,5.30
2022-09-06T20:48:47.877Z,9.20
2022-09-06T20:51:18.785Z,8.05
2022-09-06T20:53:52.885Z,7.40
2022-09-06T20:56:22.773Z,8.73
2022-09-06T20:58:54.715Z,9.95
2022-09-06T21:01:26.626Z,8.30
2022-09-06T21:03:55.940Z,6.65
2022-09-06T21:06:24.060Z,8.70
2022-09-06T21:08:51.050Z,11.88
2022-09-06T21:11:18.265Z,6.75
2022-09-06T21:13:49.498Z,7.60
2022-09-06T21:16:19.330Z,6.20
2022-09-06T21:18:52.813Z,10.68
2022-09-06T21:21:22.666Z,7.55
2022-09-06T21:23:49.480Z,12.88
2022-09-06T21:26:18.191Z,9.18
2022-09-06T21:28:46.360Z,5.18
2022-09-06T21:31:24.669Z,6.20
2022-09-06T21:33:55.653Z,15.43
2022-09-06T21:36:24.856Z,16.23
2022-09-06T21:38:55.659Z,10.18
2022-09-06T21:41:23.468Z,10.20
2022-09-06T21:43:54.934Z,13.77
2022-09-06T21:46:23.150Z,9.48
2022-09-06T21:48:51.546Z,6.20
2022-09-06T21:51:20.522Z,9.07
2022-09-06T21:53:53.309Z,11.90
2022-09-06T21:56:20.272Z,13.70
2022-09-06T21:58:51.374Z,7.22
2022-09-06T22:01:19.386Z,8.35
2022-09-06T22:03:46.482Z,6.45
2022-09-06T22:06:19.489Z,6.07
2022-09-06T22:08:47.232Z,9.70
2022-09-06T22:11:17.438Z,10.27
2022-09-06T22:13:45.418Z,8.60
2022-09-06T22:16:13.471Z,6.65
2022-09-06T22:18:40.401Z,10.00
2022-09-06T22:21:12.179Z,13.32
2022-09-06T22:23:38.978Z,12.75
2022-09-06T22:26:11.880Z,13.02
2022-09-06T22:28:39.860Z,20.25
2022-09-06T22:31:07.465Z,14.07
2022-09-06T22:33:34.988Z,10.93
2022-09-06T22:36:01.832Z,12.68
2022-09-06T22:38:29.889Z,10.73
2022-09-06T22:40:59.808Z,13.75
2022-09-06T22:43:26.431Z,15.15
2022-09-06T22:45:53.331Z,19.17
2022-09-06T22:48:19.906Z,15.00
2022-09-06T22:50:46.515Z,13.07
2022-09-06T22:53:13.220Z,11.45
2022-09-06T22:55:39.807Z,11.00
2022-09-06T22:58:06.934Z,9.57
2022-09-06T23:00:36.060Z,9.02
2022-09-06T23:03:02.769Z,6.22
2022-09-06T23:05:31.073Z,6.10
2022-09-06T23:07:57.999Z,5.90
2022-09-06T23:10:24.546Z,4.20
2022-09-06T23:12:54.790Z,4.85
2022-09-06T23:15:21.723Z,7.78
2022-09-06T23:17:48.632Z,5.70
2022-09-06T23:20:16.141Z,6.13
2022-09-06T23:22:42.642Z,4.03
2022-09-06T23:25:09.373Z,3.50
2022-09-06T23:27:36.740Z,5.18
2022-09-06T23:30:03.829Z,4.72
2022-09-06T23:32:32.569Z,6.18
2022-09-06T23:34:59.243Z,4.55
2022-09-06T23:37:25.817Z,4.93
2022-09-06T23:39:52.696Z,6.80
2022-09-06T23:42:19.463Z,2.75
2022-09-06T23:44:46.027Z,4.85
2022-09-06T23:47:12.647Z,5.38
2022-09-06T23:49:39.174Z,4.25
2022-09-06T23:52:06.044Z,4.38
2022-09-06T23:54:32.601Z,4.03
2022-09-06T23:56:59.089Z,4.45
2022-09-06T23:59:25.608Z,3.92
